sensor_id;sensor_type;location;lat;lon;timestamp;P1;durP1;ratioP1;P2;durP2;ratioP2
4182;SDS011;2105;52.300;9.182;2023-12-20T00:00:56;10.70;;;4.30;;
4182;SDS011;2105;52.300;9.182;2023-12-20T00:03:23;14.60;;;4.03;;
4182;SDS011;2105;52.300;9.182;2023-12-20T00:05:50;19.10;;;4.53;;
4182;SDS011;2105;52.300;9.182;2023-12-20T00:08:18;10.30;;;4.57;;
4182;SDS011;2105;52.300;9.182;2023-12-20T00:10:44;15.20;;;5.03;;
4182;SDS011;2105;52.300;9.182;2023-12-20T00:13:11;10.53;;;5.20;;
4182;SDS011;2105;52.300;9.182;2023-12-20T00:15:37;13.27;;;5.20;;
4182;SDS011;2105;52.300;9.182;2023-12-20T00:18:04;10.43;;;5.63;;
4182;SDS011;2105;52.300;9.182;2023-12-20T00:20:31;12.00;;;5.77;;
4182;SDS011;2105;52.300;9.182;2023-12-20T00:22:58;16.33;;;7.00;;
4182;SDS011;2105;52.300;9.182;2023-12-20T00:25:26;19.20;;;6.67;;
4182;SDS011;2105;52.300;9.182;2023-12-20T00:27:52;12.50;;;7.33;;
4182;SDS011;2105;52.300;9.182;2023-12-20T00:30:19;19.87;;;8.10;;
4182;SDS011;2105;52.300;9.182;2023-12-20T00:32:46;15.13;;;7.73;;
4182;SDS011;2105;52.300;9.182;2023-12-20T00:35:12;16.87;;;7.90;;
4182;SDS011;2105;52.300;9.182;2023-12-20T00:37:39;23.73;;;8.87;;
4182;SDS011;2105;52.300;9.182;2023-12-20T00:40:06;16.33;;;7.97;;
4182;SDS011;2105;52.300;9.182;2023-12-20T00:42:34;9.57;;;6.90;;
4182;SDS011;2105;52.300;9.182;2023-12-20T00:45:01;10.20;;;7.00;;
4182;SDS011;2105;52.300;9.182;2023-12-20T00:47:29;19.20;;;7.67;;
4182;SDS011;2105;52.300;9.182;2023-12-20T00:49:56;13.80;;;6.60;;
4182;SDS011;2105;52.300;9.182;2023-12-20T00:52:23;10.70;;;7.07;;
4182;SDS011;2105;52.300;9.182;2023-12-20T00:54:50;14.10;;;6.87;;
4182;SDS011;2105;52.300;9.182;2023-12-20T00:57:17;12.13;;;6.87;;
4182;SDS011;2105;52.300;9.182;2023-12-20T00:59:45;13.10;;;6.40;;
4182;SDS011;2105;52.300;9.182;2023-12-20T01:02:12;18.50;;;6.93;;
4182;SDS011;2105;52.300;9.182;2023-12-20T01:04:38;12.20;;;7.20;;
4182;SDS011;2105;52.300;9.182;2023-12-20T01:07:05;22.43;;;7.80;;
4182;SDS011;2105;52.300;9.182;2023-12-20T01:09:32;15.23;;;6.87;;
4182;SDS011;2105;52.300;9.182;2023-12-20T01:11:58;11.37;;;6.73;;
4182;SDS011;2105;52.300;9.182;2023-12-20T01:14:25;17.50;;;7.70;;
4182;SDS011;2105;52.300;9.182;2023-12-20T01:16:53;13.30;;;7.30;;
4182;SDS011;2105;52.300;9.182;2023-12-20T01:19:20;17.03;;;7.20;;
4182;SDS011;2105;52.300;9.182;2023-12-20T01:21:46;17.70;;;7.90;;
4182;SDS011;2105;52.300;9.182;2023-12-20T01:24:13;16.17;;;7.40;;
4182;SDS011;2105;52.300;9.182;2023-12-20T01:26:39;16.40;;;7.43;;
4182;SDS011;2105;52.300;9.182;2023-12-20T01:29:06;24.40;;;7.70;;
4182;SDS011;2105;52.300;9.182;2023-12-20T01:31:32;11.80;;;6.50;;
4182;SDS011;2105;52.300;9.182;2023-12-20T01:34:00;24.63;;;7.23;;
4182;SDS011;2105;52.300;9.182;2023-12-20T01:36:27;14.47;;;6.87;;
4182;SDS011;2105;52.300;9.182;2023-12-20T01:38:54;20.87;;;6.73;;
4182;SDS011;2105;52.300;9.182;2023-12-20T01:41:20;16.97;;;7.40;;
4182;SDS011;2105;52.300;9.182;2023-12-20T01:43:47;14.83;;;7.20;;
4182;SDS011;2105;52.300;9.182;2023-12-20T01:46:13;12.23;;;6.10;;
4182;SDS011;2105;52.300;9.182;2023-12-20T01:48:41;20.00;;;6.70;;
4182;SDS011;2105;52.300;9.182;2023-12-20T01:51:09;14.27;;;6.07;;
4182;SDS011;2105;52.300;9.182;2023-12-20T01:53:37;14.23;;;6.40;;
4182;SDS011;2105;52.300;9.182;2023-12-20T01:56:05;16.73;;;6.13;;
4182;SDS011;2105;52.300;9.182;2023-12-20T01:58:32;17.03;;;6.20;;
4182;SDS011;2105;52.300;9.182;2023-12-20T02:01:00;12.97;;;6.20;;
4182;SDS011;2105;52.300;9.182;2023-12-20T02:03:27;14.37;;;5.40;;
4182;SDS011;2105;52.300;9.182;2023-12-20T02:05:53;13.87;;;5.63;;
4182;SDS011;2105;52.300;9.182;2023-12-20T02:08:22;10.57;;;5.90;;
4182;SDS011;2105;52.300;9.182;2023-12-20T02:10:49;17.03;;;6.13;;
4182;SDS011;2105;52.300;9.182;2023-12-20T02:13:15;15.57;;;5.63;;
4182;SDS011;2105;52.300;9.182;2023-12-20T02:15:42;8.93;;;5.07;;
4182;SDS011;2105;52.300;9.182;2023-12-20T02:18:09;14.93;;;5.83;;
4182;SDS011;2105;52.300;9.182;2023-12-20T02:20:35;13.37;;;5.10;;
4182;SDS011;2105;52.300;9.182;2023-12-20T02:23:03;9.87;;;4.90;;
4182;SDS011;2105;52.300;9.182;2023-12-20T02:25:30;16.00;;;5.40;;
4182;SDS011;2105;52.300;9.182;2023-12-20T02:27:56;15.47;;;5.97;;
4182;SDS011;2105;52.300;9.182;2023-12-20T02:30:23;10.57;;;5.07;;
4182;SDS011;2105;52.300;9.182;2023-12-20T02:32:50;11.33;;;4.70;;
4182;SDS011;2105;52.300;9.182;2023-12-20T02:35:18;11.37;;;4.60;;
4182;SDS011;2105;52.300;9.182;2023-12-20T02:37:45;12.63;;;5.40;;
4182;SDS011;2105;52.300;9.182;2023-12-20T02:40:13;13.73;;;5.20;;
4182;SDS011;2105;52.300;9.182;2023-12-20T02:42:39;14.67;;;5.30;;
4182;SDS011;2105;52.300;9.182;2023-12-20T02:45:06;13.70;;;5.73;;
4182;SDS011;2105;52.300;9.182;2023-12-20T02:47:33;12.83;;;5.00;;
4182;SDS011;2105;52.300;9.182;2023-12-20T02:50:00;11.80;;;5.20;;
4182;SDS011;2105;52.300;9.182;2023-12-20T02:52:27;14.40;;;6.40;;
4182;SDS011;2105;52.300;9.182;2023-12-20T02:54:54;11.93;;;5.70;;
4182;SDS011;2105;52.300;9.182;2023-12-20T02:57:22;12.60;;;5.10;;
4182;SDS011;2105;52.300;9.182;2023-12-20T02:59:49;14.13;;;5.40;;
4182;SDS011;2105;52.300;9.182;2023-12-20T03:02:15;8.43;;;5.27;;
4182;SDS011;2105;52.300;9.182;2023-12-20T03:04:42;21.03;;;5.80;;
4182;SDS011;2105;52.300;9.182;2023-12-20T03:07:09;8.93;;;5.37;;
4182;SDS011;2105;52.300;9.182;2023-12-20T03:09:37;11.30;;;6.10;;
4182;SDS011;2105;52.300;9.182;2023-12-20T03:12:03;16.87;;;7.33;;
4182;SDS011;2105;52.300;9.182;2023-12-20T03:14:31;8.80;;;5.53;;
4182;SDS011;2105;52.300;9.182;2023-12-20T03:16:58;13.40;;;6.07;;
4182;SDS011;2105;52.300;9.182;2023-12-20T03:19:25;13.10;;;5.83;;
4182;SDS011;2105;52.300;9.182;2023-12-20T03:21:51;12.90;;;5.23;;
4182;SDS011;2105;52.300;9.182;2023-12-20T03:24:18;18.53;;;6.20;;
4182;SDS011;2105;52.300;9.182;2023-12-20T03:26:45;12.30;;;5.50;;
4182;SDS011;2105;52.300;9.182;2023-12-20T03:29:11;13.60;;;5.50;;
4182;SDS011;2105;52.300;9.182;2023-12-20T03:31:39;16.63;;;5.37;;
4182;SDS011;2105;52.300;9.182;2023-12-20T03:34:06;10.90;;;5.20;;
4182;SDS011;2105;52.300;9.182;2023-12-20T03:36:32;12.63;;;5.83;;
4182;SDS011;2105;52.300;9.182;2023-12-20T03:38:59;19.53;;;5.00;;
4182;SDS011;2105;52.300;9.182;2023-12-20T03:41:25;8.57;;;4.83;;
4182;SDS011;2105;52.300;9.182;2023-12-20T03:43:52;10.60;;;5.20;;
4182;SDS011;2105;52.300;9.182;2023-12-20T03:46:18;12.63;;;5.70;;
4182;SDS011;2105;52.300;9.182;2023-12-20T03:48:46;10.53;;;5.13;;
4182;SDS011;2105;52.300;9.182;2023-12-20T03:51:13;17.40;;;5.90;;
4182;SDS011;2105;52.300;9.182;2023-12-20T03:53:39;16.43;;;5.60;;
4182;SDS011;2105;52.300;9.182;2023-12-20T03:56:06;8.87;;;5.33;;
4182;SDS011;2105;52.300;9.182;2023-12-20T03:58:33;12.90;;;5.60;;
4182;SDS011;2105;52.300;9.182;2023-12-20T04:00:59;10.10;;;5.67;;
4182;SDS011;2105;52.300;9.182;2023-12-20T04:03:26;10.87;;;5.50;;
4182;SDS011;2105;52.300;9.182;2023-12-20T04:05:54;14.13;;;5.37;;
4182;SDS011;2105;52.300;9.182;2023-12-20T04:08:20;17.00;;;6.23;;
4182;SDS011;2105;52.300;9.182;2023-12-20T04:10:47;14.37;;;6.20;;
4182;SDS011;2105;52.300;9.182;2023-12-20T04:13:13;17.90;;;7.73;;
4182;SDS011;2105;52.300;9.182;2023-12-20T04:15:40;11.37;;;5.70;;
4182;SDS011;2105;52.300;9.182;2023-12-20T04:18:07;16.60;;;6.17;;
4182;SDS011;2105;52.300;9.182;2023-12-20T04:20:33;13.03;;;5.70;;
4182;SDS011;2105;52.300;9.182;2023-12-20T04:23:01;17.43;;;6.83;;
4182;SDS011;2105;52.300;9.182;2023-12-20T04:25:28;22.90;;;6.67;;
4182;SDS011;2105;52.300;9.182;2023-12-20T04:27:54;11.13;;;6.30;;
4182;SDS011;2105;52.300;9.182;2023-12-20T04:30:21;15.40;;;6.53;;
4182;SDS011;2105;52.300;9.182;2023-12-20T04:32:47;29.60;;;7.43;;
4182;SDS011;2105;52.300;9.182;2023-12-20T04:35:14;19.77;;;6.50;;
4182;SDS011;2105;52.300;9.182;2023-12-20T04:37:40;14.63;;;8.10;;
4182;SDS011;2105;52.300;9.182;2023-12-20T04:40:09;17.63;;;7.17;;
4182;SDS011;2105;52.300;9.182;2023-12-20T04:42:36;19.47;;;7.77;;
4182;SDS011;2105;52.300;9.182;2023-12-20T04:45:03;17.60;;;7.70;;
4182;SDS011;2105;52.300;9.182;2023-12-20T04:47:30;23.53;;;8.00;;
4182;SDS011;2105;52.300;9.182;2023-12-20T04:49:57;20.30;;;7.53;;
4182;SDS011;2105;52.300;9.182;2023-12-20T04:52:23;23.73;;;7.10;;
4182;SDS011;2105;52.300;9.182;2023-12-20T04:54:51;20.53;;;7.20;;
4182;SDS011;2105;52.300;9.182;2023-12-20T04:57:19;21.63;;;7.70;;
4182;SDS011;2105;52.300;9.182;2023-12-20T04:59:45;19.40;;;8.00;;
4182;SDS011;2105;52.300;9.182;2023-12-20T05:02:12;21.83;;;7.43;;
4182;SDS011;2105;52.300;9.182;2023-12-20T05:04:39;18.33;;;8.23;;
4182;SDS011;2105;52.300;9.182;2023-12-20T05:07:06;20.40;;;8.03;;
4182;SDS011;2105;52.300;9.182;2023-12-20T05:09:33;30.93;;;8.03;;
4182;SDS011;2105;52.300;9.182;2023-12-20T05:14:28;36.93;;;8.50;;
4182;SDS011;2105;52.300;9.182;2023-12-20T05:16:55;27.97;;;7.33;;
4182;SDS011;2105;52.300;9.182;2023-12-20T05:19:22;21.23;;;8.10;;
4182;SDS011;2105;52.300;9.182;2023-12-20T05:21:49;17.27;;;6.07;;
4182;SDS011;2105;52.300;9.182;2023-12-20T05:24:15;17.33;;;7.43;;
4182;SDS011;2105;52.300;9.182;2023-12-20T05:26:42;31.00;;;7.80;;
4182;SDS011;2105;52.300;9.182;2023-12-20T05:29:09;17.40;;;5.63;;
4182;SDS011;2105;52.300;9.182;2023-12-20T05:31:36;25.97;;;6.40;;
4182;SDS011;2105;52.300;9.182;2023-12-20T05:34:03;13.33;;;5.87;;
4182;SDS011;2105;52.300;9.182;2023-12-20T05:36:30;17.27;;;6.60;;
4182;SDS011;2105;52.300;9.182;2023-12-20T05:38:56;16.40;;;6.90;;
4182;SDS011;2105;52.300;9.182;2023-12-20T05:41:23;18.77;;;6.70;;
4182;SDS011;2105;52.300;9.182;2023-12-20T05:43:49;24.10;;;7.13;;
4182;SDS011;2105;52.300;9.182;2023-12-20T05:46:16;20.73;;;7.57;;
4182;SDS011;2105;52.300;9.182;2023-12-20T05:48:44;22.60;;;8.60;;
4182;SDS011;2105;52.300;9.182;2023-12-20T05:51:11;19.70;;;7.50;;
4182;SDS011;2105;52.300;9.182;2023-12-20T05:53:37;26.00;;;8.03;;
4182;SDS011;2105;52.300;9.182;2023-12-20T05:56:04;24.43;;;6.97;;
4182;SDS011;2105;52.300;9.182;2023-12-20T05:58:31;28.53;;;7.33;;
4182;SDS011;2105;52.300;9.182;2023-12-20T06:00:58;21.00;;;7.10;;
4182;SDS011;2105;52.300;9.182;2023-12-20T06:03:25;20.77;;;6.70;;
4182;SDS011;2105;52.300;9.182;2023-12-20T06:05:53;23.27;;;6.03;;
4182;SDS011;2105;52.300;9.182;2023-12-20T06:08:19;30.77;;;6.60;;
4182;SDS011;2105;52.300;9.182;2023-12-20T06:10:46;21.50;;;6.77;;
4182;SDS011;2105;52.300;9.182;2023-12-20T06:13:12;24.10;;;8.00;;
4182;SDS011;2105;52.300;9.182;2023-12-20T06:15:39;27.30;;;7.37;;
4182;SDS011;2105;52.300;9.182;2023-12-20T06:18:06;20.27;;;6.47;;
4182;SDS011;2105;52.300;9.182;2023-12-20T06:20:33;28.93;;;7.50;;
4182;SDS011;2105;52.300;9.182;2023-12-20T06:23:01;21.63;;;6.60;;
4182;SDS011;2105;52.300;9.182;2023-12-20T06:25:27;23.23;;;6.57;;
4182;SDS011;2105;52.300;9.182;2023-12-20T06:27:54;19.43;;;5.77;;
4182;SDS011;2105;52.300;9.182;2023-12-20T06:30:20;22.20;;;7.50;;
4182;SDS011;2105;52.300;9.182;2023-12-20T06:32:47;26.80;;;6.80;;
4182;SDS011;2105;52.300;9.182;2023-12-20T06:35:14;30.90;;;7.27;;
4182;SDS011;2105;52.300;9.182;2023-12-20T06:37:41;23.33;;;6.80;;
4182;SDS011;2105;52.300;9.182;2023-12-20T06:40:10;24.37;;;6.97;;
4182;SDS011;2105;52.300;9.182;2023-12-20T06:42:37;25.87;;;6.80;;
4182;SDS011;2105;52.300;9.182;2023-12-20T06:45:04;21.33;;;7.20;;
4182;SDS011;2105;52.300;9.182;2023-12-20T06:47:31;22.80;;;7.73;;
4182;SDS011;2105;52.300;9.182;2023-12-20T06:49:57;15.90;;;6.63;;
4182;SDS011;2105;52.300;9.182;2023-12-20T06:52:24;24.10;;;7.33;;
4182;SDS011;2105;52.300;9.182;2023-12-20T06:54:51;25.23;;;7.83;;
4182;SDS011;2105;52.300;9.182;2023-12-20T06:57:19;28.83;;;7.83;;
4182;SDS011;2105;52.300;9.182;2023-12-20T06:59:45;32.00;;;7.20;;
4182;SDS011;2105;52.300;9.182;2023-12-20T07:02:12;16.50;;;7.10;;
4182;SDS011;2105;52.300;9.182;2023-12-20T07:04:39;24.37;;;8.27;;
4182;SDS011;2105;52.300;9.182;2023-12-20T07:07:06;19.23;;;7.93;;
4182;SDS011;2105;52.300;9.182;2023-12-20T07:09:32;21.33;;;7.70;;
4182;SDS011;2105;52.300;9.182;2023-12-20T07:11:59;29.37;;;7.87;;
4182;SDS011;2105;52.300;9.182;2023-12-20T07:14:27;20.10;;;7.47;;
4182;SDS011;2105;52.300;9.182;2023-12-20T07:16:54;20.27;;;7.60;;
4182;SDS011;2105;52.300;9.182;2023-12-20T07:19:20;23.93;;;7.80;;
4182;SDS011;2105;52.300;9.182;2023-12-20T07:21:47;20.90;;;7.30;;
4182;SDS011;2105;52.300;9.182;2023-12-20T07:24:14;30.07;;;8.73;;
4182;SDS011;2105;52.300;9.182;2023-12-20T07:26:40;20.60;;;6.97;;
4182;SDS011;2105;52.300;9.182;2023-12-20T07:29:08;25.67;;;8.03;;
4182;SDS011;2105;52.300;9.182;2023-12-20T07:31:36;24.43;;;6.97;;
4182;SDS011;2105;52.300;9.182;2023-12-20T07:34:03;25.50;;;6.83;;
4182;SDS011;2105;52.300;9.182;2023-12-20T07:36:46;23.53;;;6.63;;
4182;SDS011;2105;52.300;9.182;2023-12-20T07:39:13;36.97;;;6.93;;
4182;SDS011;2105;52.300;9.182;2023-12-20T07:41:40;33.17;;;7.63;;
4182;SDS011;2105;52.300;9.182;2023-12-20T07:44:06;28.53;;;7.60;;
4182;SDS011;2105;52.300;9.182;2023-12-20T07:46:33;23.73;;;7.80;;
4182;SDS011;2105;52.300;9.182;2023-12-20T07:49:01;29.17;;;7.93;;
4182;SDS011;2105;52.300;9.182;2023-12-20T07:51:28;25.53;;;7.97;;
4182;SDS011;2105;52.300;9.182;2023-12-20T07:53:54;26.27;;;8.13;;
4182;SDS011;2105;52.300;9.182;2023-12-20T07:56:21;26.87;;;8.10;;
4182;SDS011;2105;52.300;9.182;2023-12-20T07:58:47;20.07;;;8.03;;
4182;SDS011;2105;52.300;9.182;2023-12-20T08:01:15;23.33;;;7.37;;
4182;SDS011;2105;52.300;9.182;2023-12-20T08:03:44;17.03;;;7.70;;
4182;SDS011;2105;52.300;9.182;2023-12-20T08:06:11;21.97;;;7.77;;
4182;SDS011;2105;52.300;9.182;2023-12-20T08:08:38;22.10;;;8.40;;
4182;SDS011;2105;52.300;9.182;2023-12-20T08:11:04;22.63;;;7.87;;
4182;SDS011;2105;52.300;9.182;2023-12-20T08:13:31;23.27;;;8.33;;
4182;SDS011;2105;52.300;9.182;2023-12-20T08:15:57;23.93;;;7.70;;
4182;SDS011;2105;52.300;9.182;2023-12-20T08:18:24;22.00;;;7.63;;
4182;SDS011;2105;52.300;9.182;2023-12-20T08:20:52;23.13;;;7.50;;
4182;SDS011;2105;52.300;9.182;2023-12-20T08:23:19;25.63;;;7.80;;
4182;SDS011;2105;52.300;9.182;2023-12-20T08:25:46;28.23;;;8.50;;
4182;SDS011;2105;52.300;9.182;2023-12-20T08:28:13;26.53;;;7.63;;
4182;SDS011;2105;52.300;9.182;2023-12-20T08:30:39;27.60;;;7.63;;
4182;SDS011;2105;52.300;9.182;2023-12-20T08:33:06;14.80;;;6.63;;
4182;SDS011;2105;52.300;9.182;2023-12-20T08:35:36;23.17;;;9.00;;
4182;SDS011;2105;52.300;9.182;2023-12-20T08:38:04;14.63;;;7.43;;
4182;SDS011;2105;52.300;9.182;2023-12-20T08:40:30;26.67;;;9.17;;
4182;SDS011;2105;52.300;9.182;2023-12-20T08:42:57;21.30;;;7.00;;
4182;SDS011;2105;52.300;9.182;2023-12-20T08:45:24;23.13;;;7.23;;
4182;SDS011;2105;52.300;9.182;2023-12-20T08:47:50;23.60;;;7.10;;
4182;SDS011;2105;52.300;9.182;2023-12-20T08:50:17;16.67;;;7.70;;
4182;SDS011;2105;52.300;9.182;2023-12-20T08:52:43;17.97;;;7.70;;
4182;SDS011;2105;52.300;9.182;2023-12-20T08:55:11;27.60;;;9.13;;
4182;SDS011;2105;52.300;9.182;2023-12-20T08:57:40;11.77;;;5.50;;
4182;SDS011;2105;52.300;9.182;2023-12-20T09:00:07;35.40;;;8.93;;
4182;SDS011;2105;52.300;9.182;2023-12-20T09:02:34;23.10;;;6.70;;
4182;SDS011;2105;52.300;9.182;2023-12-20T09:05:01;27.57;;;7.83;;
4182;SDS011;2105;52.300;9.182;2023-12-20T09:07:28;23.80;;;7.30;;
4182;SDS011;2105;52.300;9.182;2023-12-20T09:09:56;22.20;;;8.20;;
4182;SDS011;2105;52.300;9.182;2023-12-20T09:12:24;23.53;;;7.97;;
4182;SDS011;2105;52.300;9.182;2023-12-20T09:14:51;21.83;;;7.00;;
4182;SDS011;2105;52.300;9.182;2023-12-20T09:17:18;26.53;;;7.73;;
4182;SDS011;2105;52.300;9.182;2023-12-20T09:19:45;25.23;;;9.07;;
4182;SDS011;2105;52.300;9.182;2023-12-20T09:22:12;24.67;;;7.63;;
4182;SDS011;2105;52.300;9.182;2023-12-20T09:24:39;14.50;;;7.23;;
4182;SDS011;2105;52.300;9.182;2023-12-20T09:27:05;24.80;;;7.70;;
4182;SDS011;2105;52.300;9.182;2023-12-20T09:29:33;22.13;;;7.57;;
4182;SDS011;2105;52.300;9.182;2023-12-20T09:32:00;25.87;;;8.03;;
4182;SDS011;2105;52.300;9.182;2023-12-20T09:34:27;18.33;;;7.53;;
4182;SDS011;2105;52.300;9.182;2023-12-20T09:36:54;18.50;;;8.00;;
4182;SDS011;2105;52.300;9.182;2023-12-20T09:39:21;20.30;;;7.97;;
4182;SDS011;2105;52.300;9.182;2023-12-20T09:41:49;21.43;;;8.00;;
4182;SDS011;2105;52.300;9.182;2023-12-20T09:44:25;13.10;;;7.37;;
4182;SDS011;2105;52.300;9.182;2023-12-20T09:46:54;25.53;;;8.20;;
4182;SDS011;2105;52.300;9.182;2023-12-20T09:49:21;26.13;;;8.00;;
4182;SDS011;2105;52.300;9.182;2023-12-20T09:51:48;23.50;;;8.00;;
4182;SDS011;2105;52.300;9.182;2023-12-20T09:54:17;19.37;;;7.40;;
4182;SDS011;2105;52.300;9.182;2023-12-20T09:56:44;25.90;;;9.27;;
4182;SDS011;2105;52.300;9.182;2023-12-20T09:59:11;25.40;;;9.00;;
4182;SDS011;2105;52.300;9.182;2023-12-20T10:01:38;16.60;;;8.10;;
4182;SDS011;2105;52.300;9.182;2023-12-20T10:04:08;27.63;;;8.87;;
4182;SDS011;2105;52.300;9.182;2023-12-20T10:06:37;27.37;;;7.97;;
4182;SDS011;2105;52.300;9.182;2023-12-20T10:09:04;18.10;;;8.00;;
4182;SDS011;2105;52.300;9.182;2023-12-20T10:11:30;26.37;;;8.40;;
4182;SDS011;2105;52.300;9.182;2023-12-20T10:13:58;20.00;;;8.70;;
4182;SDS011;2105;52.300;9.182;2023-12-20T10:16:26;19.40;;;8.37;;
4182;SDS011;2105;52.300;9.182;2023-12-20T10:18:53;23.43;;;8.40;;
4182;SDS011;2105;52.300;9.182;2023-12-20T10:21:21;19.57;;;8.63;;
4182;SDS011;2105;52.300;9.182;2023-12-20T10:23:49;19.30;;;7.80;;
4182;SDS011;2105;52.300;9.182;2023-12-20T10:26:19;15.33;;;8.37;;
4182;SDS011;2105;52.300;9.182;2023-12-20T10:28:46;30.57;;;8.40;;
4182;SDS011;2105;52.300;9.182;2023-12-20T10:31:25;28.90;;;7.73;;
4182;SDS011;2105;52.300;9.182;2023-12-20T10:33:53;19.70;;;7.67;;
4182;SDS011;2105;52.300;9.182;2023-12-20T10:36:19;21.10;;;8.17;;
4182;SDS011;2105;52.300;9.182;2023-12-20T10:38:48;29.80;;;9.23;;
4182;SDS011;2105;52.300;9.182;2023-12-20T10:41:18;21.57;;;7.93;;
4182;SDS011;2105;52.300;9.182;2023-12-20T10:43:50;29.60;;;7.87;;
4182;SDS011;2105;52.300;9.182;2023-12-20T10:46:18;20.30;;;7.10;;
4182;SDS011;2105;52.300;9.182;2023-12-20T10:48:45;28.37;;;7.40;;
4182;SDS011;2105;52.300;9.182;2023-12-20T10:51:14;22.07;;;6.77;;
4182;SDS011;2105;52.300;9.182;2023-12-20T10:53:46;29.47;;;8.10;;
4182;SDS011;2105;52.300;9.182;2023-12-20T10:56:15;16.20;;;6.80;;
4182;SDS011;2105;52.300;9.182;2023-12-20T10:58:43;32.50;;;7.40;;
4182;SDS011;2105;52.300;9.182;2023-12-20T11:01:10;18.23;;;7.43;;
4182;SDS011;2105;52.300;9.182;2023-12-20T11:03:39;19.70;;;7.50;;
4182;SDS011;2105;52.300;9.182;2023-12-20T11:06:10;16.07;;;7.83;;
4182;SDS011;2105;52.300;9.182;2023-12-20T11:08:47;21.07;;;7.67;;
4182;SDS011;2105;52.300;9.182;2023-12-20T11:13:48;22.07;;;8.30;;
4182;SDS011;2105;52.300;9.182;2023-12-20T11:16:21;17.70;;;7.37;;
4182;SDS011;2105;52.300;9.182;2023-12-20T11:18:48;21.37;;;6.87;;
4182;SDS011;2105;52.300;9.182;2023-12-20T11:21:17;20.30;;;7.57;;
4182;SDS011;2105;52.300;9.182;2023-12-20T11:23:44;24.37;;;7.87;;
4182;SDS011;2105;52.300;9.182;2023-12-20T11:26:15;27.03;;;7.60;;
4182;SDS011;2105;52.300;9.182;2023-12-20T11:28:42;15.50;;;6.27;;
4182;SDS011;2105;52.300;9.182;2023-12-20T11:31:09;20.53;;;6.97;;
4182;SDS011;2105;52.300;9.182;2023-12-20T11:33:42;21.30;;;7.17;;
4182;SDS011;2105;52.300;9.182;2023-12-20T11:36:12;19.20;;;6.83;;
4182;SDS011;2105;52.300;9.182;2023-12-20T11:38:50;30.50;;;7.27;;
4182;SDS011;2105;52.300;9.182;2023-12-20T11:41:22;17.13;;;6.40;;
4182;SDS011;2105;52.300;9.182;2023-12-20T11:43:49;18.17;;;6.20;;
4182;SDS011;2105;52.300;9.182;2023-12-20T11:46:19;16.17;;;5.40;;
4182;SDS011;2105;52.300;9.182;2023-12-20T11:48:46;23.50;;;5.83;;
4182;SDS011;2105;52.300;9.182;2023-12-20T11:51:14;12.30;;;3.90;;
4182;SDS011;2105;52.300;9.182;2023-12-20T11:53:41;14.60;;;2.53;;
4182;SDS011;2105;52.300;9.182;2023-12-20T11:56:10;7.10;;;2.27;;
4182;SDS011;2105;52.300;9.182;2023-12-20T11:58:37;13.83;;;2.40;;
4182;SDS011;2105;52.300;9.182;2023-12-20T12:01:04;6.30;;;2.50;;
4182;SDS011;2105;52.300;9.182;2023-12-20T12:03:32;7.60;;;2.30;;
4182;SDS011;2105;52.300;9.182;2023-12-20T12:05:59;3.80;;;2.30;;
4182;SDS011;2105;52.300;9.182;2023-12-20T12:08:27;6.97;;;2.73;;
4182;SDS011;2105;52.300;9.182;2023-12-20T12:10:54;6.60;;;2.83;;
4182;SDS011;2105;52.300;9.182;2023-12-20T12:13:22;10.90;;;2.40;;
4182;SDS011;2105;52.300;9.182;2023-12-20T12:15:52;9.60;;;2.57;;
4182;SDS011;2105;52.300;9.182;2023-12-20T12:18:19;5.90;;;2.73;;
4182;SDS011;2105;52.300;9.182;2023-12-20T12:20:46;7.67;;;2.97;;
4182;SDS011;2105;52.300;9.182;2023-12-20T12:23:13;6.33;;;2.90;;
4182;SDS011;2105;52.300;9.182;2023-12-20T12:25:39;6.20;;;3.20;;
4182;SDS011;2105;52.300;9.182;2023-12-20T12:28:06;12.67;;;3.43;;
4182;SDS011;2105;52.300;9.182;2023-12-20T12:30:34;10.33;;;2.77;;
4182;SDS011;2105;52.300;9.182;2023-12-20T12:33:01;6.00;;;2.97;;
4182;SDS011;2105;52.300;9.182;2023-12-20T12:35:29;4.70;;;2.77;;
4182;SDS011;2105;52.300;9.182;2023-12-20T12:37:56;12.57;;;3.10;;
4182;SDS011;2105;52.300;9.182;2023-12-20T12:40:25;4.50;;;2.90;;
4182;SDS011;2105;52.300;9.182;2023-12-20T12:42:52;7.70;;;2.90;;
4182;SDS011;2105;52.300;9.182;2023-12-20T12:45:18;7.87;;;3.00;;
4182;SDS011;2105;52.300;9.182;2023-12-20T12:47:46;5.33;;;2.90;;
4182;SDS011;2105;52.300;9.182;2023-12-20T12:50:13;3.10;;;2.70;;
4182;SDS011;2105;52.300;9.182;2023-12-20T12:52:39;7.33;;;2.40;;
4182;SDS011;2105;52.300;9.182;2023-12-20T12:55:06;5.30;;;2.77;;
4182;SDS011;2105;52.300;9.182;2023-12-20T12:57:33;7.27;;;2.67;;
4182;SDS011;2105;52.300;9.182;2023-12-20T13:00:00;10.57;;;3.20;;
4182;SDS011;2105;52.300;9.182;2023-12-20T13:02:27;3.43;;;2.40;;
4182;SDS011;2105;52.300;9.182;2023-12-20T13:04:55;6.50;;;2.63;;
4182;SDS011;2105;52.300;9.182;2023-12-20T13:07:22;4.67;;;3.17;;
4182;SDS011;2105;52.300;9.182;2023-12-20T13:09:49;7.53;;;3.13;;
4182;SDS011;2105;52.300;9.182;2023-12-20T13:12:15;5.63;;;3.10;;
4182;SDS011;2105;52.300;9.182;2023-12-20T13:14:42;8.53;;;3.60;;
4182;SDS011;2105;52.300;9.182;2023-12-20T13:17:09;7.67;;;3.67;;
4182;SDS011;2105;52.300;9.182;2023-12-20T13:19:36;3.37;;;3.07;;
4182;SDS011;2105;52.300;9.182;2023-12-20T13:22:04;6.20;;;3.33;;
4182;SDS011;2105;52.300;9.182;2023-12-20T13:24:31;6.77;;;3.50;;
4182;SDS011;2105;52.300;9.182;2023-12-20T13:26:58;5.80;;;3.60;;
4182;SDS011;2105;52.300;9.182;2023-12-20T13:29:25;11.23;;;3.70;;
4182;SDS011;2105;52.300;9.182;2023-12-20T13:31:52;8.17;;;3.23;;
4182;SDS011;2105;52.300;9.182;2023-12-20T13:34:18;10.40;;;3.40;;
4182;SDS011;2105;52.300;9.182;2023-12-20T13:36:46;9.90;;;3.90;;
4182;SDS011;2105;52.300;9.182;2023-12-20T13:39:16;12.00;;;3.90;;
4182;SDS011;2105;52.300;9.182;2023-12-20T13:41:43;7.47;;;4.30;;
4182;SDS011;2105;52.300;9.182;2023-12-20T13:44:09;9.00;;;4.80;;
4182;SDS011;2105;52.300;9.182;2023-12-20T13:46:37;8.07;;;4.70;;
4182;SDS011;2105;52.300;9.182;2023-12-20T13:49:04;13.50;;;5.80;;
4182;SDS011;2105;52.300;9.182;2023-12-20T13:51:31;10.27;;;5.73;;
4182;SDS011;2105;52.300;9.182;2023-12-20T13:53:57;10.47;;;5.97;;
4182;SDS011;2105;52.300;9.182;2023-12-20T13:56:25;9.47;;;6.80;;
4182;SDS011;2105;52.300;9.182;2023-12-20T13:58:52;13.43;;;6.60;;
4182;SDS011;2105;52.300;9.182;2023-12-20T14:01:19;8.17;;;6.93;;
4182;SDS011;2105;52.300;9.182;2023-12-20T14:03:45;8.00;;;7.20;;
4182;SDS011;2105;52.300;9.182;2023-12-20T14:06:12;8.93;;;8.00;;
4182;SDS011;2105;52.300;9.182;2023-12-20T14:08:41;9.30;;;8.00;;
4182;SDS011;2105;52.300;9.182;2023-12-20T14:11:07;10.53;;;8.30;;
4182;SDS011;2105;52.300;9.182;2023-12-20T14:13:35;12.27;;;9.07;;
4182;SDS011;2105;52.300;9.182;2023-12-20T14:16:02;14.43;;;8.37;;
4182;SDS011;2105;52.300;9.182;2023-12-20T14:18:29;11.17;;;8.70;;
4182;SDS011;2105;52.300;9.182;2023-12-20T14:20:56;10.30;;;8.37;;
4182;SDS011;2105;52.300;9.182;2023-12-20T14:23:23;9.20;;;8.30;;
4182;SDS011;2105;52.300;9.182;2023-12-20T14:25:49;17.40;;;8.43;;
4182;SDS011;2105;52.300;9.182;2023-12-20T14:28:16;10.27;;;8.23;;
4182;SDS011;2105;52.300;9.182;2023-12-20T14:30:44;9.80;;;8.53;;
4182;SDS011;2105;52.300;9.182;2023-12-20T14:33:11;12.43;;;8.27;;
4182;SDS011;2105;52.300;9.182;2023-12-20T14:35:37;11.53;;;8.33;;
4182;SDS011;2105;52.300;9.182;2023-12-20T14:38:05;11.40;;;9.13;;
4182;SDS011;2105;52.300;9.182;2023-12-20T14:40:32;11.40;;;8.30;;
4182;SDS011;2105;52.300;9.182;2023-12-20T14:42:59;11.90;;;8.53;;
4182;SDS011;2105;52.300;9.182;2023-12-20T14:45:26;16.13;;;8.70;;
4182;SDS011;2105;52.300;9.182;2023-12-20T14:47:54;10.27;;;9.30;;
4182;SDS011;2105;52.300;9.182;2023-12-20T14:50:21;9.53;;;8.50;;
4182;SDS011;2105;52.300;9.182;2023-12-20T14:52:48;9.60;;;8.70;;
4182;SDS011;2105;52.300;9.182;2023-12-20T14:55:14;15.20;;;9.50;;
4182;SDS011;2105;52.300;9.182;2023-12-20T14:57:42;10.47;;;8.83;;
4182;SDS011;2105;52.300;9.182;2023-12-20T15:00:08;11.40;;;9.70;;
4182;SDS011;2105;52.300;9.182;2023-12-20T15:02:39;13.27;;;9.20;;
4182;SDS011;2105;52.300;9.182;2023-12-20T15:05:08;11.80;;;9.50;;
4182;SDS011;2105;52.300;9.182;2023-12-20T15:07:34;18.40;;;9.80;;